LGKOLGSR

Guest
Details From LGKO - KOS
To LGSR - SANTORINI
Flight Number -
Tags generated
Created
Modified
Stats Distance 81 nm / 151 km
Max Altitude 8,000 ft / 2,438 m
Waypoints 3
Social Downloads 3
Likes 0
Share VATSIM

Download

Looking for another format? Having issues loading an existing format? Contact us
Advertisement - Login to hide

Notes

Basic altitude profile: - Ascent Rate: 2500ft/min - Ascent Speed: 250kts - Cruise Altitude: 35000ft - Cruise Speed: 420kts - Descent Rate: 1500ft/min - Descent Speed: 250kts Options: - Use NATs: yes - Use PACOTS: yes - Use low airways: yes - Use high airways: yes

Route

LGKO ASTIS LGSR

ID Type Via Altitude Latitude Longitude Leg Dist Tot Dist Heading (true) Name
O LGKO APT - 0 ft / 0 m 36.79440˚ 27.09076˚ - 0 nm - KOS
ASTIS FIX - 8,000 ft / 2,438 m 36.56528˚ 26.23278˚ 43 nm 43 nm 252° / 251° -
O LGSR APT - 0 ft / 0 m 36.39895˚ 25.47851˚ 37 nm 81 nm 255° / 254° SANTORINI

Altitude Profile

Advertisement - Login to hide

LGKO

Details ICAO LGKO (KGS)
Name KOS
Region Greece
Timezone Europe/Athens (UTC+2.0)
Stats Elevation 412 ft / 126 m (AMSL)
Location 36.794403° 27.090764°
Runways 1
Magnetic Variation 4.723° E

METAR

LGKO 120250Z 00000KT 9999 FEW016 SCT025 12/09 Q1024

Decode

TAF

TAF LGKO 112300Z 1200/1224 VRB03KT 9999 FEW016 BKN030 BECMG 1203/1205 FEW016 BECMG 1215/1217 30013KT

Decode

Departure Runways

ID Width Length Bearing (true) Bearing (mag) Surface Threshold Offset Overrun Length
14 148 ft / 45 m 7,923 ft / 2,415 m 148.29° 143.57° Asphalt 0 ft / 0 m 240 ft / 73 m
32 148 ft / 45 m 7,923 ft / 2,415 m 328.30° 323.58° Asphalt 0 ft / 0 m 205 ft / 62 m

LGSR

Details ICAO LGSR (JTR)
Name SANTORINI
Region Greece
Timezone Europe/Athens (UTC+2.0)
Stats Elevation 127 ft / 39 m (AMSL)
Location 36.398949° 25.478507°
Runways 2
Magnetic Variation 4.511° E

METAR

LGSR 120250Z AUTO VRB03KT //// // ////// 13/10 Q1023 RE//

Decode

TAF

TAF LGSR 112300Z 1200/1224 16008KT 9999 FEW020 SCT050 BECMG 1217/1219 27012KT

Decode

Destination Runways

ID Width Length Bearing (true) Bearing (mag) Surface Threshold Offset Overrun Length
16L 98 ft / 30 m 6,978 ft / 2,127 m 159.53° 155.02° Asphalt 0 ft / 0 m 909 ft / 277 m
16R 98 ft / 30 m 6,969 ft / 2,124 m 159.56° 155.05° Asphalt 0 ft / 0 m 420 ft / 128 m
34L 98 ft / 30 m 6,969 ft / 2,124 m 339.56° 335.05° Asphalt 0 ft / 0 m 0 ft / 0 m
34R 98 ft / 30 m 6,978 ft / 2,127 m 339.54° 335.03° Asphalt 0 ft / 0 m 0 ft / 0 m

Popular Alternatives